sensor_id;sensor_type;location;lat;lon;timestamp;P1;durP1;ratioP1;P2;durP2;ratioP2
3689;SDS011;1861;50.240;8.596;2023-02-25T00:01:22;6.20;;;1.30;;
3689;SDS011;1861;50.240;8.596;2023-02-25T00:03:52;5.10;;;1.67;;
3689;SDS011;1861;50.240;8.596;2023-02-25T00:06:21;2.33;;;1.50;;
3689;SDS011;1861;50.240;8.596;2023-02-25T00:08:51;9.70;;;1.80;;
3689;SDS011;1861;50.240;8.596;2023-02-25T00:11:21;3.23;;;1.20;;
3689;SDS011;1861;50.240;8.596;2023-02-25T00:13:50;3.00;;;1.53;;
3689;SDS011;1861;50.240;8.596;2023-02-25T00:16:19;5.83;;;1.63;;
3689;SDS011;1861;50.240;8.596;2023-02-25T00:18:52;3.50;;;1.43;;
3689;SDS011;1861;50.240;8.596;2023-02-25T00:21:20;5.20;;;1.53;;
3689;SDS011;1861;50.240;8.596;2023-02-25T00:23:49;7.87;;;2.00;;
3689;SDS011;1861;50.240;8.596;2023-02-25T00:26:19;6.57;;;1.97;;
3689;SDS011;1861;50.240;8.596;2023-02-25T00:28:49;2.17;;;1.40;;
3689;SDS011;1861;50.240;8.596;2023-02-25T00:31:18;6.50;;;1.97;;
3689;SDS011;1861;50.240;8.596;2023-02-25T00:33:47;4.13;;;1.67;;
3689;SDS011;1861;50.240;8.596;2023-02-25T00:36:18;6.83;;;1.50;;
3689;SDS011;1861;50.240;8.596;2023-02-25T00:38:49;4.73;;;1.67;;
3689;SDS011;1861;50.240;8.596;2023-02-25T00:41:21;6.73;;;2.40;;
3689;SDS011;1861;50.240;8.596;2023-02-25T00:43:51;6.10;;;1.70;;
3689;SDS011;1861;50.240;8.596;2023-02-25T00:46:20;8.87;;;2.00;;
3689;SDS011;1861;50.240;8.596;2023-02-25T00:48:50;7.70;;;1.43;;
3689;SDS011;1861;50.240;8.596;2023-02-25T00:51:19;3.53;;;1.50;;
3689;SDS011;1861;50.240;8.596;2023-02-25T00:53:49;13.83;;;1.27;;
3689;SDS011;1861;50.240;8.596;2023-02-25T00:56:17;2.50;;;1.67;;
3689;SDS011;1861;50.240;8.596;2023-02-25T00:58:48;3.00;;;1.70;;
3689;SDS011;1861;50.240;8.596;2023-02-25T01:01:19;3.60;;;1.73;;
3689;SDS011;1861;50.240;8.596;2023-02-25T01:03:48;4.00;;;1.77;;
3689;SDS011;1861;50.240;8.596;2023-02-25T01:06:19;4.73;;;1.97;;
3689;SDS011;1861;50.240;8.596;2023-02-25T01:08:48;4.20;;;1.80;;
3689;SDS011;1861;50.240;8.596;2023-02-25T01:11:17;6.20;;;1.83;;
3689;SDS011;1861;50.240;8.596;2023-02-25T01:13:49;10.03;;;2.53;;
3689;SDS011;1861;50.240;8.596;2023-02-25T01:16:18;4.97;;;2.47;;
3689;SDS011;1861;50.240;8.596;2023-02-25T01:18:50;8.43;;;2.00;;
3689;SDS011;1861;50.240;8.596;2023-02-25T01:21:22;5.23;;;1.93;;
3689;SDS011;1861;50.240;8.596;2023-02-25T01:23:54;3.03;;;1.37;;
3689;SDS011;1861;50.240;8.596;2023-02-25T01:26:24;5.60;;;1.50;;
3689;SDS011;1861;50.240;8.596;2023-02-25T01:28:54;6.00;;;2.00;;
3689;SDS011;1861;50.240;8.596;2023-02-25T01:31:24;4.50;;;1.90;;
3689;SDS011;1861;50.240;8.596;2023-02-25T01:33:55;6.30;;;1.80;;
3689;SDS011;1861;50.240;8.596;2023-02-25T01:36:23;5.33;;;2.03;;
3689;SDS011;1861;50.240;8.596;2023-02-25T01:38:52;5.10;;;2.00;;
3689;SDS011;1861;50.240;8.596;2023-02-25T01:41:21;7.50;;;2.03;;
3689;SDS011;1861;50.240;8.596;2023-02-25T01:44:04;7.50;;;1.63;;
3689;SDS011;1861;50.240;8.596;2023-02-25T01:46:35;6.70;;;2.10;;
3689;SDS011;1861;50.240;8.596;2023-02-25T01:49:06;3.33;;;1.80;;
3689;SDS011;1861;50.240;8.596;2023-02-25T01:51:37;4.13;;;1.60;;
3689;SDS011;1861;50.240;8.596;2023-02-25T01:54:06;8.07;;;1.83;;
3689;SDS011;1861;50.240;8.596;2023-02-25T01:56:36;7.70;;;2.60;;
3689;SDS011;1861;50.240;8.596;2023-02-25T01:59:08;1.57;;;1.10;;
3689;SDS011;1861;50.240;8.596;2023-02-25T02:01:37;3.67;;;1.47;;
3689;SDS011;1861;50.240;8.596;2023-02-25T02:04:07;4.97;;;2.00;;
3689;SDS011;1861;50.240;8.596;2023-02-25T02:06:37;5.37;;;2.07;;
3689;SDS011;1861;50.240;8.596;2023-02-25T02:09:07;5.50;;;1.90;;
3689;SDS011;1861;50.240;8.596;2023-02-25T02:11:39;7.20;;;2.03;;
3689;SDS011;1861;50.240;8.596;2023-02-25T02:14:09;4.93;;;1.97;;
3689;SDS011;1861;50.240;8.596;2023-02-25T02:16:52;9.27;;;2.13;;
3689;SDS011;1861;50.240;8.596;2023-02-25T02:19:37;7.13;;;1.90;;
3689;SDS011;1861;50.240;8.596;2023-02-25T02:22:23;7.43;;;1.40;;
3689;SDS011;1861;50.240;8.596;2023-02-25T02:25:09;3.40;;;1.60;;
3689;SDS011;1861;50.240;8.596;2023-02-25T02:31:12;2.17;;;1.37;;
3689;SDS011;1861;50.240;8.596;2023-02-25T02:33:56;6.63;;;1.83;;
3689;SDS011;1861;50.240;8.596;2023-02-25T02:36:34;3.90;;;1.77;;
3689;SDS011;1861;50.240;8.596;2023-02-25T02:39:14;2.57;;;1.67;;
3689;SDS011;1861;50.240;8.596;2023-02-25T02:41:55;7.97;;;2.17;;
3689;SDS011;1861;50.240;8.596;2023-02-25T02:44:29;5.60;;;1.90;;
3689;SDS011;1861;50.240;8.596;2023-02-25T02:47:02;2.70;;;1.50;;
3689;SDS011;1861;50.240;8.596;2023-02-25T02:49:35;7.00;;;2.43;;
3689;SDS011;1861;50.240;8.596;2023-02-25T02:52:07;6.70;;;1.80;;
3689;SDS011;1861;50.240;8.596;2023-02-25T02:54:42;9.47;;;2.27;;
3689;SDS011;1861;50.240;8.596;2023-02-25T02:57:13;6.63;;;2.00;;
3689;SDS011;1861;50.240;8.596;2023-02-25T02:59:45;5.87;;;2.00;;
3689;SDS011;1861;50.240;8.596;2023-02-25T03:02:19;7.67;;;1.80;;
3689;SDS011;1861;50.240;8.596;2023-02-25T03:04:50;7.97;;;1.97;;
3689;SDS011;1861;50.240;8.596;2023-02-25T03:07:22;3.57;;;1.30;;
3689;SDS011;1861;50.240;8.596;2023-02-25T03:09:51;7.27;;;1.60;;
3689;SDS011;1861;50.240;8.596;2023-02-25T03:12:22;5.73;;;1.10;;
3689;SDS011;1861;50.240;8.596;2023-02-25T03:14:52;2.60;;;1.60;;
3689;SDS011;1861;50.240;8.596;2023-02-25T03:17:22;3.77;;;1.40;;
3689;SDS011;1861;50.240;8.596;2023-02-25T03:19:55;3.13;;;1.50;;
3689;SDS011;1861;50.240;8.596;2023-02-25T03:22:31;5.80;;;1.67;;
3689;SDS011;1861;50.240;8.596;2023-02-25T03:25:07;3.30;;;1.47;;
3689;SDS011;1861;50.240;8.596;2023-02-25T03:27:40;3.73;;;1.40;;
3689;SDS011;1861;50.240;8.596;2023-02-25T03:30:15;7.53;;;2.07;;
3689;SDS011;1861;50.240;8.596;2023-02-25T03:32:50;2.80;;;1.50;;
3689;SDS011;1861;50.240;8.596;2023-02-25T03:35:21;8.00;;;1.73;;
3689;SDS011;1861;50.240;8.596;2023-02-25T03:37:54;3.90;;;1.70;;
3689;SDS011;1861;50.240;8.596;2023-02-25T03:40:26;8.63;;;2.77;;
3689;SDS011;1861;50.240;8.596;2023-02-25T03:42:57;5.60;;;2.50;;
3689;SDS011;1861;50.240;8.596;2023-02-25T03:45:33;10.03;;;1.87;;
3689;SDS011;1861;50.240;8.596;2023-02-25T03:48:05;5.40;;;1.60;;
3689;SDS011;1861;50.240;8.596;2023-02-25T03:50:36;7.60;;;1.77;;
3689;SDS011;1861;50.240;8.596;2023-02-25T03:53:10;8.90;;;2.47;;
3689;SDS011;1861;50.240;8.596;2023-02-25T03:55:47;4.67;;;1.93;;
3689;SDS011;1861;50.240;8.596;2023-02-25T03:58:15;14.70;;;1.97;;
3689;SDS011;1861;50.240;8.596;2023-02-25T04:00:44;7.43;;;1.83;;
3689;SDS011;1861;50.240;8.596;2023-02-25T04:03:16;7.53;;;2.00;;
3689;SDS011;1861;50.240;8.596;2023-02-25T04:05:45;5.80;;;1.80;;
3689;SDS011;1861;50.240;8.596;2023-02-25T04:08:14;13.40;;;3.17;;
3689;SDS011;1861;50.240;8.596;2023-02-25T04:10:43;3.33;;;1.77;;
3689;SDS011;1861;50.240;8.596;2023-02-25T04:13:14;4.90;;;2.20;;
3689;SDS011;1861;50.240;8.596;2023-02-25T04:15:46;9.13;;;2.60;;
3689;SDS011;1861;50.240;8.596;2023-02-25T04:18:16;9.30;;;2.70;;
3689;SDS011;1861;50.240;8.596;2023-02-25T04:20:44;5.57;;;2.10;;
3689;SDS011;1861;50.240;8.596;2023-02-25T04:23:13;4.53;;;2.30;;
3689;SDS011;1861;50.240;8.596;2023-02-25T04:25:42;7.83;;;2.73;;
3689;SDS011;1861;50.240;8.596;2023-02-25T04:28:10;4.90;;;2.20;;
3689;SDS011;1861;50.240;8.596;2023-02-25T04:30:39;4.13;;;2.10;;
3689;SDS011;1861;50.240;8.596;2023-02-25T04:33:08;7.63;;;2.73;;
3689;SDS011;1861;50.240;8.596;2023-02-25T04:35:38;7.53;;;2.10;;
3689;SDS011;1861;50.240;8.596;2023-02-25T04:38:06;6.97;;;1.83;;
3689;SDS011;1861;50.240;8.596;2023-02-25T04:40:35;7.83;;;2.40;;
3689;SDS011;1861;50.240;8.596;2023-02-25T04:43:03;4.43;;;2.70;;
3689;SDS011;1861;50.240;8.596;2023-02-25T04:45:31;9.80;;;2.37;;
3689;SDS011;1861;50.240;8.596;2023-02-25T04:47:59;2.57;;;2.20;;
3689;SDS011;1861;50.240;8.596;2023-02-25T04:50:27;5.97;;;2.57;;
3689;SDS011;1861;50.240;8.596;2023-02-25T04:52:57;6.10;;;1.60;;
3689;SDS011;1861;50.240;8.596;2023-02-25T04:55:27;5.20;;;2.50;;
3689;SDS011;1861;50.240;8.596;2023-02-25T04:57:55;7.50;;;2.10;;
3689;SDS011;1861;50.240;8.596;2023-02-25T05:00:23;6.90;;;2.47;;
3689;SDS011;1861;50.240;8.596;2023-02-25T05:02:53;5.40;;;2.20;;
3689;SDS011;1861;50.240;8.596;2023-02-25T05:05:24;2.10;;;1.90;;
3689;SDS011;1861;50.240;8.596;2023-02-25T05:07:52;4.63;;;2.40;;
3689;SDS011;1861;50.240;8.596;2023-02-25T05:10:21;5.03;;;2.07;;
3689;SDS011;1861;50.240;8.596;2023-02-25T05:12:49;9.60;;;2.10;;
3689;SDS011;1861;50.240;8.596;2023-02-25T05:15:18;4.20;;;2.53;;
3689;SDS011;1861;50.240;8.596;2023-02-25T05:17:46;2.80;;;1.80;;
3689;SDS011;1861;50.240;8.596;2023-02-25T05:20:14;8.07;;;2.47;;
3689;SDS011;1861;50.240;8.596;2023-02-25T05:22:43;10.63;;;2.03;;
3689;SDS011;1861;50.240;8.596;2023-02-25T05:25:11;3.97;;;2.00;;
3689;SDS011;1861;50.240;8.596;2023-02-25T05:27:41;4.23;;;2.10;;
3689;SDS011;1861;50.240;8.596;2023-02-25T05:30:10;5.43;;;2.20;;
3689;SDS011;1861;50.240;8.596;2023-02-25T05:32:39;4.57;;;2.03;;
3689;SDS011;1861;50.240;8.596;2023-02-25T05:35:07;5.63;;;1.80;;
3689;SDS011;1861;50.240;8.596;2023-02-25T05:37:37;2.97;;;1.70;;
3689;SDS011;1861;50.240;8.596;2023-02-25T05:40:05;4.93;;;1.80;;
3689;SDS011;1861;50.240;8.596;2023-02-25T05:42:35;2.87;;;2.03;;
3689;SDS011;1861;50.240;8.596;2023-02-25T05:45:05;3.67;;;1.87;;
3689;SDS011;1861;50.240;8.596;2023-02-25T05:47:34;3.27;;;1.60;;
3689;SDS011;1861;50.240;8.596;2023-02-25T05:50:02;5.83;;;1.80;;
3689;SDS011;1861;50.240;8.596;2023-02-25T05:52:31;2.73;;;1.87;;
3689;SDS011;1861;50.240;8.596;2023-02-25T05:54:59;6.10;;;2.43;;
3689;SDS011;1861;50.240;8.596;2023-02-25T05:57:27;4.97;;;2.10;;
3689;SDS011;1861;50.240;8.596;2023-02-25T05:59:55;2.23;;;1.70;;
3689;SDS011;1861;50.240;8.596;2023-02-25T06:02:24;4.03;;;1.80;;
3689;SDS011;1861;50.240;8.596;2023-02-25T06:04:53;5.80;;;2.17;;
3689;SDS011;1861;50.240;8.596;2023-02-25T06:07:21;6.33;;;2.37;;
3689;SDS011;1861;50.240;8.596;2023-02-25T06:09:49;6.73;;;2.20;;
3689;SDS011;1861;50.240;8.596;2023-02-25T06:12:17;8.17;;;2.80;;
3689;SDS011;1861;50.240;8.596;2023-02-25T06:14:45;5.53;;;2.57;;
3689;SDS011;1861;50.240;8.596;2023-02-25T06:17:13;9.13;;;2.67;;
3689;SDS011;1861;50.240;8.596;2023-02-25T06:19:42;10.67;;;3.00;;
3689;SDS011;1861;50.240;8.596;2023-02-25T06:22:11;7.77;;;2.23;;
3689;SDS011;1861;50.240;8.596;2023-02-25T06:24:39;7.20;;;2.40;;
3689;SDS011;1861;50.240;8.596;2023-02-25T06:27:07;6.20;;;2.53;;
3689;SDS011;1861;50.240;8.596;2023-02-25T06:29:35;16.73;;;3.07;;
3689;SDS011;1861;50.240;8.596;2023-02-25T06:32:06;11.80;;;2.67;;
3689;SDS011;1861;50.240;8.596;2023-02-25T06:34:35;4.17;;;2.67;;
3689;SDS011;1861;50.240;8.596;2023-02-25T06:37:05;7.27;;;2.50;;
3689;SDS011;1861;50.240;8.596;2023-02-25T06:39:33;4.80;;;2.47;;
3689;SDS011;1861;50.240;8.596;2023-02-25T06:42:02;6.27;;;2.47;;
3689;SDS011;1861;50.240;8.596;2023-02-25T06:44:30;3.90;;;2.43;;
3689;SDS011;1861;50.240;8.596;2023-02-25T06:46:58;4.63;;;2.60;;
3689;SDS011;1861;50.240;8.596;2023-02-25T06:49:26;7.53;;;2.40;;
3689;SDS011;1861;50.240;8.596;2023-02-25T06:51:56;6.23;;;2.60;;
3689;SDS011;1861;50.240;8.596;2023-02-25T06:54:25;3.67;;;2.07;;
3689;SDS011;1861;50.240;8.596;2023-02-25T06:56:54;5.57;;;2.20;;
3689;SDS011;1861;50.240;8.596;2023-02-25T06:59:22;7.23;;;3.20;;
3689;SDS011;1861;50.240;8.596;2023-02-25T07:01:50;8.57;;;2.43;;
3689;SDS011;1861;50.240;8.596;2023-02-25T07:04:18;5.63;;;2.23;;
3689;SDS011;1861;50.240;8.596;2023-02-25T07:06:46;13.07;;;2.97;;
3689;SDS011;1861;50.240;8.596;2023-02-25T07:09:14;5.00;;;3.00;;
3689;SDS011;1861;50.240;8.596;2023-02-25T07:11:44;6.57;;;3.00;;
3689;SDS011;1861;50.240;8.596;2023-02-25T07:14:12;7.30;;;3.10;;
3689;SDS011;1861;50.240;8.596;2023-02-25T07:16:41;7.77;;;3.17;;
3689;SDS011;1861;50.240;8.596;2023-02-25T07:19:09;6.57;;;2.67;;
3689;SDS011;1861;50.240;8.596;2023-02-25T07:21:42;5.77;;;2.80;;
3689;SDS011;1861;50.240;8.596;2023-02-25T07:24:11;5.10;;;2.60;;
3689;SDS011;1861;50.240;8.596;2023-02-25T07:26:39;7.10;;;3.23;;
3689;SDS011;1861;50.240;8.596;2023-02-25T07:29:08;8.20;;;4.00;;
3689;SDS011;1861;50.240;8.596;2023-02-25T07:31:39;7.37;;;2.50;;
3689;SDS011;1861;50.240;8.596;2023-02-25T07:34:07;5.77;;;3.00;;
3689;SDS011;1861;50.240;8.596;2023-02-25T07:36:36;9.03;;;2.90;;
3689;SDS011;1861;50.240;8.596;2023-02-25T07:39:05;6.00;;;2.57;;
3689;SDS011;1861;50.240;8.596;2023-02-25T07:41:35;6.20;;;3.00;;
3689;SDS011;1861;50.240;8.596;2023-02-25T07:44:03;4.50;;;2.40;;
3689;SDS011;1861;50.240;8.596;2023-02-25T07:46:33;5.93;;;2.67;;
3689;SDS011;1861;50.240;8.596;2023-02-25T07:49:02;5.70;;;2.77;;
3689;SDS011;1861;50.240;8.596;2023-02-25T07:51:30;4.60;;;3.03;;
3689;SDS011;1861;50.240;8.596;2023-02-25T07:53:58;11.73;;;3.10;;
3689;SDS011;1861;50.240;8.596;2023-02-25T07:56:27;7.13;;;3.17;;
3689;SDS011;1861;50.240;8.596;2023-02-25T07:58:56;4.60;;;2.77;;
3689;SDS011;1861;50.240;8.596;2023-02-25T08:01:25;6.70;;;3.60;;
3689;SDS011;1861;50.240;8.596;2023-02-25T08:03:59;3.93;;;2.53;;
3689;SDS011;1861;50.240;8.596;2023-02-25T08:06:30;9.77;;;3.47;;
3689;SDS011;1861;50.240;8.596;2023-02-25T08:08:58;8.70;;;3.00;;
3689;SDS011;1861;50.240;8.596;2023-02-25T08:11:26;4.40;;;2.70;;
3689;SDS011;1861;50.240;8.596;2023-02-25T08:13:54;6.07;;;3.63;;
3689;SDS011;1861;50.240;8.596;2023-02-25T08:16:22;4.60;;;2.40;;
3689;SDS011;1861;50.240;8.596;2023-02-25T08:18:51;12.50;;;3.53;;
3689;SDS011;1861;50.240;8.596;2023-02-25T08:21:21;10.03;;;3.60;;
3689;SDS011;1861;50.240;8.596;2023-02-25T08:23:50;7.73;;;3.13;;
3689;SDS011;1861;50.240;8.596;2023-02-25T08:26:20;9.13;;;3.20;;
3689;SDS011;1861;50.240;8.596;2023-02-25T08:28:49;6.93;;;3.30;;
3689;SDS011;1861;50.240;8.596;2023-02-25T08:31:18;7.63;;;3.30;;
3689;SDS011;1861;50.240;8.596;2023-02-25T08:33:49;6.77;;;3.40;;
3689;SDS011;1861;50.240;8.596;2023-02-25T08:36:20;5.63;;;2.90;;
3689;SDS011;1861;50.240;8.596;2023-02-25T08:38:50;7.80;;;3.40;;
3689;SDS011;1861;50.240;8.596;2023-02-25T08:41:18;5.40;;;2.90;;
3689;SDS011;1861;50.240;8.596;2023-02-25T08:43:48;8.97;;;3.37;;
3689;SDS011;1861;50.240;8.596;2023-02-25T08:46:19;8.37;;;3.50;;
3689;SDS011;1861;50.240;8.596;2023-02-25T08:48:48;5.90;;;2.60;;
3689;SDS011;1861;50.240;8.596;2023-02-25T08:51:18;3.97;;;2.57;;
3689;SDS011;1861;50.240;8.596;2023-02-25T08:53:48;8.40;;;3.10;;
3689;SDS011;1861;50.240;8.596;2023-02-25T08:56:17;5.70;;;2.50;;
3689;SDS011;1861;50.240;8.596;2023-02-25T08:58:45;7.30;;;2.37;;
3689;SDS011;1861;50.240;8.596;2023-02-25T09:01:14;10.27;;;2.30;;
3689;SDS011;1861;50.240;8.596;2023-02-25T09:03:44;6.77;;;2.50;;
3689;SDS011;1861;50.240;8.596;2023-02-25T09:06:19;7.00;;;3.20;;
3689;SDS011;1861;50.240;8.596;2023-02-25T09:08:50;4.93;;;2.40;;
3689;SDS011;1861;50.240;8.596;2023-02-25T09:11:19;8.80;;;2.50;;
3689;SDS011;1861;50.240;8.596;2023-02-25T09:13:49;3.87;;;1.97;;
3689;SDS011;1861;50.240;8.596;2023-02-25T09:16:18;6.67;;;2.73;;
3689;SDS011;1861;50.240;8.596;2023-02-25T09:18:46;3.47;;;1.97;;
3689;SDS011;1861;50.240;8.596;2023-02-25T09:21:16;3.00;;;2.13;;
3689;SDS011;1861;50.240;8.596;2023-02-25T09:23:45;9.00;;;3.20;;
3689;SDS011;1861;50.240;8.596;2023-02-25T09:26:18;6.47;;;4.27;;
3689;SDS011;1861;50.240;8.596;2023-02-25T09:28:47;4.20;;;2.70;;
3689;SDS011;1861;50.240;8.596;2023-02-25T09:31:16;6.83;;;2.77;;
3689;SDS011;1861;50.240;8.596;2023-02-25T09:33:45;5.67;;;2.50;;
3689;SDS011;1861;50.240;8.596;2023-02-25T09:36:14;4.50;;;2.80;;
3689;SDS011;1861;50.240;8.596;2023-02-25T09:38:45;4.63;;;2.57;;
3689;SDS011;1861;50.240;8.596;2023-02-25T09:41:17;5.47;;;2.77;;
3689;SDS011;1861;50.240;8.596;2023-02-25T09:43:57;5.67;;;2.60;;
3689;SDS011;1861;50.240;8.596;2023-02-25T09:46:31;6.50;;;2.77;;
3689;SDS011;1861;50.240;8.596;2023-02-25T09:49:01;10.87;;;2.80;;
3689;SDS011;1861;50.240;8.596;2023-02-25T09:51:35;9.43;;;2.70;;
3689;SDS011;1861;50.240;8.596;2023-02-25T09:54:13;6.17;;;2.87;;
3689;SDS011;1861;50.240;8.596;2023-02-25T09:56:48;3.77;;;2.10;;
3689;SDS011;1861;50.240;8.596;2023-02-25T09:59:17;3.37;;;1.90;;
3689;SDS011;1861;50.240;8.596;2023-02-25T10:01:48;7.83;;;2.40;;
3689;SDS011;1861;50.240;8.596;2023-02-25T10:04:23;5.93;;;2.17;;
3689;SDS011;1861;50.240;8.596;2023-02-25T10:07:00;6.93;;;2.70;;
3689;SDS011;1861;50.240;8.596;2023-02-25T10:09:36;5.27;;;1.97;;
3689;SDS011;1861;50.240;8.596;2023-02-25T10:12:14;4.97;;;2.13;;
3689;SDS011;1861;50.240;8.596;2023-02-25T10:14:54;6.37;;;2.40;;
3689;SDS011;1861;50.240;8.596;2023-02-25T10:17:43;11.97;;;2.67;;
3689;SDS011;1861;50.240;8.596;2023-02-25T10:20:30;3.87;;;2.10;;
3689;SDS011;1861;50.240;8.596;2023-02-25T10:23:12;3.97;;;2.00;;
3689;SDS011;1861;50.240;8.596;2023-02-25T10:25:51;3.90;;;2.33;;
3689;SDS011;1861;50.240;8.596;2023-02-25T10:28:24;6.33;;;2.43;;
3689;SDS011;1861;50.240;8.596;2023-02-25T10:30:55;4.40;;;2.30;;
3689;SDS011;1861;50.240;8.596;2023-02-25T10:33:30;5.80;;;2.13;;
3689;SDS011;1861;50.240;8.596;2023-02-25T10:36:03;8.13;;;2.20;;
3689;SDS011;1861;50.240;8.596;2023-02-25T10:38:36;5.73;;;2.60;;
3689;SDS011;1861;50.240;8.596;2023-02-25T10:41:11;6.87;;;2.70;;
3689;SDS011;1861;50.240;8.596;2023-02-25T10:43:41;4.00;;;2.93;;
3689;SDS011;1861;50.240;8.596;2023-02-25T10:46:12;5.97;;;2.70;;
3689;SDS011;1861;50.240;8.596;2023-02-25T10:48:46;6.97;;;2.67;;
3689;SDS011;1861;50.240;8.596;2023-02-25T10:51:19;7.87;;;2.00;;
3689;SDS011;1861;50.240;8.596;2023-02-25T10:53:59;3.33;;;2.00;;
3689;SDS011;1861;50.240;8.596;2023-02-25T10:56:31;7.00;;;2.63;;
3689;SDS011;1861;50.240;8.596;2023-02-25T10:59:09;6.60;;;2.80;;
3689;SDS011;1861;50.240;8.596;2023-02-25T11:01:52;5.87;;;2.60;;
3689;SDS011;1861;50.240;8.596;2023-02-25T11:04:22;5.40;;;2.23;;
3689;SDS011;1861;50.240;8.596;2023-02-25T11:06:54;6.50;;;2.47;;
3689;SDS011;1861;50.240;8.596;2023-02-25T11:09:26;3.67;;;2.47;;
3689;SDS011;1861;50.240;8.596;2023-02-25T11:11:57;7.30;;;2.17;;
3689;SDS011;1861;50.240;8.596;2023-02-25T11:14:28;14.48;;;3.40;;
3689;SDS011;1861;50.240;8.596;2023-02-25T11:17:00;5.50;;;2.83;;
3689;SDS011;1861;50.240;8.596;2023-02-25T11:19:34;2.40;;;1.60;;
3689;SDS011;1861;50.240;8.596;2023-02-25T11:22:06;3.60;;;1.20;;
3689;SDS011;1861;50.240;8.596;2023-02-25T11:24:37;3.50;;;0.83;;
3689;SDS011;1861;50.240;8.596;2023-02-25T11:27:06;2.07;;;1.07;;
3689;SDS011;1861;50.240;8.596;2023-02-25T11:29:49;1.53;;;0.93;;
3689;SDS011;1861;50.240;8.596;2023-02-25T11:32:18;0.73;;;0.73;;
3689;SDS011;1861;50.240;8.596;2023-02-25T11:34:48;1.10;;;0.67;;
3689;SDS011;1861;50.240;8.596;2023-02-25T11:37:25;1.20;;;0.80;;
3689;SDS011;1861;50.240;8.596;2023-02-25T11:40:09;0.80;;;0.50;;
3689;SDS011;1861;50.240;8.596;2023-02-25T11:42:58;6.07;;;1.80;;
3689;SDS011;1861;50.240;8.596;2023-02-25T11:45:30;3.10;;;1.23;;
3689;SDS011;1861;50.240;8.596;2023-02-25T11:47:59;1.70;;;0.80;;
3689;SDS011;1861;50.240;8.596;2023-02-25T11:50:31;2.40;;;0.80;;
3689;SDS011;1861;50.240;8.596;2023-02-25T11:53:13;1.40;;;1.07;;
3689;SDS011;1861;50.240;8.596;2023-02-25T11:55:51;3.27;;;1.87;;
3689;SDS011;1861;50.240;8.596;2023-02-25T11:58:32;3.13;;;1.50;;
3689;SDS011;1861;50.240;8.596;2023-02-25T12:01:15;5.13;;;1.40;;
3689;SDS011;1861;50.240;8.596;2023-02-25T12:03:56;8.27;;;1.37;;
3689;SDS011;1861;50.240;8.596;2023-02-25T12:06:42;3.17;;;1.77;;
3689;SDS011;1861;50.240;8.596;2023-02-25T12:09:39;3.70;;;1.40;;
3689;SDS011;1861;50.240;8.596;2023-02-25T12:12:26;1.47;;;1.10;;
3689;SDS011;1861;50.240;8.596;2023-02-25T12:15:28;1.90;;;1.00;;
3689;SDS011;1861;50.240;8.596;2023-02-25T12:18:33;1.67;;;1.00;;
3689;SDS011;1861;50.240;8.596;2023-02-25T12:21:27;1.70;;;0.97;;
3689;SDS011;1861;50.240;8.596;2023-02-25T12:24:26;1.27;;;1.00;;
3689;SDS011;1861;50.240;8.596;2023-02-25T12:27:17;1.33;;;1.00;;
3689;SDS011;1861;50.240;8.596;2023-02-25T12:30:19;1.83;;;0.80;;
3689;SDS011;1861;50.240;8.596;2023-02-25T12:33:06;1.80;;;0.97;;
3689;SDS011;1861;50.240;8.596;2023-02-25T12:35:51;1.00;;;0.80;;
3689;SDS011;1861;50.240;8.596;2023-02-25T12:38:37;1.07;;;0.80;;
3689;SDS011;1861;50.240;8.596;2023-02-25T12:41:30;1.00;;;0.90;;
3689;SDS011;1861;50.240;8.596;2023-02-25T12:44:14;1.47;;;0.83;;
3689;SDS011;1861;50.240;8.596;2023-02-25T12:47:07;1.03;;;0.70;;
3689;SDS011;1861;50.240;8.596;2023-02-25T12:52:49;1.87;;;0.83;;
3689;SDS011;1861;50.240;8.596;2023-02-25T12:55:40;2.00;;;0.90;;
3689;SDS011;1861;50.240;8.596;2023-02-25T12:58:24;0.80;;;0.70;;
3689;SDS011;1861;50.240;8.596;2023-02-25T13:01:09;3.03;;;0.70;;
3689;SDS011;1861;50.240;8.596;2023-02-25T13:04:20;0.90;;;0.70;;
3689;SDS011;1861;50.240;8.596;2023-02-25T13:07:13;1.87;;;0.77;;
3689;SDS011;1861;50.240;8.596;2023-02-25T13:10:04;1.57;;;0.80;;
3689;SDS011;1861;50.240;8.596;2023-02-25T13:12:56;0.77;;;0.77;;
3689;SDS011;1861;50.240;8.596;2023-02-25T13:15:34;3.87;;;1.20;;
3689;SDS011;1861;50.240;8.596;2023-02-25T13:18:10;1.87;;;0.90;;
3689;SDS011;1861;50.240;8.596;2023-02-25T13:20:49;1.90;;;1.10;;
3689;SDS011;1861;50.240;8.596;2023-02-25T13:23:31;2.13;;;1.10;;
3689;SDS011;1861;50.240;8.596;2023-02-25T13:26:14;2.00;;;1.10;;
3689;SDS011;1861;50.240;8.596;2023-02-25T13:28:54;1.13;;;1.00;;
3689;SDS011;1861;50.240;8.596;2023-02-25T13:31:35;2.10;;;0.87;;
3689;SDS011;1861;50.240;8.596;2023-02-25T13:34:16;2.30;;;0.93;;
3689;SDS011;1861;50.240;8.596;2023-02-25T13:36:56;1.70;;;1.40;;
3689;SDS011;1861;50.240;8.596;2023-02-25T13:39:49;1.70;;;0.77;;
3689;SDS011;1861;50.240;8.596;2023-02-25T13:42:33;2.30;;;0.93;;
3689;SDS011;1861;50.240;8.596;2023-02-25T13:45:28;1.53;;;0.90;;
3689;SDS011;1861;50.240;8.596;2023-02-25T13:51:15;2.03;;;0.80;;
3689;SDS011;1861;50.240;8.596;2023-02-25T13:54:04;1.50;;;0.80;;
3689;SDS011;1861;50.240;8.596;2023-02-25T13:56:47;2.00;;;0.90;;
3689;SDS011;1861;50.240;8.596;2023-02-25T13:59:37;0.97;;;0.60;;
3689;SDS011;1861;50.240;8.596;2023-02-25T14:02:44;1.00;;;0.70;;
3689;SDS011;1861;50.240;8.596;2023-02-25T14:05:25;1.00;;;0.60;;
3689;SDS011;1861;50.240;8.596;2023-02-25T14:08:15;1.73;;;0.80;;
3689;SDS011;1861;50.240;8.596;2023-02-25T14:11:13;1.80;;;0.70;;
3689;SDS011;1861;50.240;8.596;2023-02-25T14:14:01;2.97;;;0.60;;
3689;SDS011;1861;50.240;8.596;2023-02-25T14:16:53;1.10;;;0.80;;
3689;SDS011;1861;50.240;8.596;2023-02-25T14:19:39;4.00;;;0.70;;
3689;SDS011;1861;50.240;8.596;2023-02-25T14:22:23;0.80;;;0.70;;
3689;SDS011;1861;50.240;8.596;2023-02-25T14:25:07;3.07;;;0.70;;
3689;SDS011;1861;50.240;8.596;2023-02-25T14:27:47;2.30;;;0.90;;
3689;SDS011;1861;50.240;8.596;2023-02-25T14:30:24;1.20;;;0.90;;
3689;SDS011;1861;50.240;8.596;2023-02-25T14:33:16;1.10;;;0.90;;
3689;SDS011;1861;50.240;8.596;2023-02-25T14:36:01;1.90;;;0.70;;
3689;SDS011;1861;50.240;8.596;2023-02-25T14:38:48;1.23;;;0.80;;
3689;SDS011;1861;50.240;8.596;2023-02-25T14:41:40;1.57;;;0.80;;
3689;SDS011;1861;50.240;8.596;2023-02-25T14:44:24;1.30;;;0.70;;
3689;SDS011;1861;50.240;8.596;2023-02-25T14:47:01;1.43;;;0.90;;
3689;SDS011;1861;50.240;8.596;2023-02-25T14:49:36;1.27;;;0.70;;
3689;SDS011;1861;50.240;8.596;2023-02-25T14:52:23;0.80;;;0.70;;
3689;SDS011;1861;50.240;8.596;2023-02-25T14:55:22;1.20;;;0.90;;
3689;SDS011;1861;50.240;8.596;2023-02-25T14:58:20;1.43;;;0.60;;
3689;SDS011;1861;50.240;8.596;2023-02-25T15:04:17;3.00;;;0.70;;
3689;SDS011;1861;50.240;8.596;2023-02-25T15:07:16;2.30;;;0.83;;
3689;SDS011;1861;50.240;8.596;2023-02-25T15:10:19;1.47;;;0.80;;
3689;SDS011;1861;50.240;8.596;2023-02-25T15:13:00;2.50;;;0.80;;
3689;SDS011;1861;50.240;8.596;2023-02-25T15:16:12;2.07;;;1.07;;
3689;SDS011;1861;50.240;8.596;2023-02-25T15:22:18;3.60;;;0.80;;
3689;SDS011;1861;50.240;8.596;2023-02-25T15:24:48;2.10;;;0.80;;
3689;SDS011;1861;50.240;8.596;2023-02-25T15:27:31;2.43;;;1.13;;
3689;SDS011;1861;50.240;8.596;2023-02-25T15:30:12;1.90;;;1.10;;
3689;SDS011;1861;50.240;8.596;2023-02-25T15:38:54;1.40;;;0.80;;
3689;SDS011;1861;50.240;8.596;2023-02-25T15:41:36;2.53;;;0.93;;
3689;SDS011;1861;50.240;8.596;2023-02-25T15:49:50;2.43;;;1.03;;
3689;SDS011;1861;50.240;8.596;2023-02-25T15:55:20;5.60;;;0.90;;
3689;SDS011;1861;50.240;8.596;2023-02-25T15:58:01;2.80;;;0.80;;
3689;SDS011;1861;50.240;8.596;2023-02-25T16:00:51;2.93;;;0.70;;
3689;SDS011;1861;50.240;8.596;2023-02-25T16:03:24;7.87;;;1.03;;
3689;SDS011;1861;50.240;8.596;2023-02-25T16:06:08;3.30;;;0.67;;
3689;SDS011;1861;50.240;8.596;2023-02-25T16:08:44;5.53;;;0.90;;
3689;SDS011;1861;50.240;8.596;2023-02-25T16:11:33;5.23;;;0.90;;
3689;SDS011;1861;50.240;8.596;2023-02-25T16:14:03;3.27;;;0.97;;
3689;SDS011;1861;50.240;8.596;2023-02-25T16:16:38;2.50;;;0.90;;
3689;SDS011;1861;50.240;8.596;2023-02-25T16:19:18;2.23;;;0.90;;
3689;SDS011;1861;50.240;8.596;2023-02-25T16:21:50;4.43;;;1.97;;
3689;SDS011;1861;50.240;8.596;2023-02-25T16:24:22;4.73;;;2.57;;
3689;SDS011;1861;50.240;8.596;2023-02-25T16:26:54;3.67;;;1.40;;
3689;SDS011;1861;50.240;8.596;2023-02-25T16:29:35;1.80;;;0.80;;
3689;SDS011;1861;50.240;8.596;2023-02-25T16:32:17;2.33;;;0.87;;